sensor_id;sensor_type;location;lat;lon;timestamp;P1;durP1;ratioP1;P2;durP2;ratioP2
69894;SDS011;57172;52.034;5.090;2024-02-04T00:02:10;31.30;;;9.77;;
69894;SDS011;57172;52.034;5.090;2024-02-04T00:04:40;40.78;;;11.25;;
69894;SDS011;57172;52.034;5.090;2024-02-04T00:07:07;31.60;;;10.43;;
69894;SDS011;57172;52.034;5.090;2024-02-04T00:09:34;34.47;;;10.27;;
69894;SDS011;57172;52.034;5.090;2024-02-04T00:12:02;38.05;;;11.27;;
69894;SDS011;57172;52.034;5.090;2024-02-04T00:14:30;29.02;;;10.55;;
69894;SDS011;57172;52.034;5.090;2024-02-04T00:16:58;27.30;;;8.80;;
69894;SDS011;57172;52.034;5.090;2024-02-04T00:19:25;30.25;;;11.50;;
69894;SDS011;57172;52.034;5.090;2024-02-04T00:21:53;27.03;;;11.07;;
69894;SDS011;57172;52.034;5.090;2024-02-04T00:24:20;36.15;;;11.02;;
69894;SDS011;57172;52.034;5.090;2024-02-04T00:26:47;33.22;;;11.50;;
69894;SDS011;57172;52.034;5.090;2024-02-04T00:29:14;30.52;;;10.27;;
69894;SDS011;57172;52.034;5.090;2024-02-04T00:31:41;29.77;;;9.70;;
69894;SDS011;57172;52.034;5.090;2024-02-04T00:34:08;32.90;;;9.53;;
69894;SDS011;57172;52.034;5.090;2024-02-04T00:36:35;34.13;;;9.98;;
69894;SDS011;57172;52.034;5.090;2024-02-04T00:39:02;27.20;;;9.63;;
69894;SDS011;57172;52.034;5.090;2024-02-04T00:41:29;29.33;;;8.98;;
69894;SDS011;57172;52.034;5.090;2024-02-04T00:43:56;27.45;;;8.40;;
69894;SDS011;57172;52.034;5.090;2024-02-04T00:46:23;22.23;;;8.40;;
69894;SDS011;57172;52.034;5.090;2024-02-04T00:48:50;23.20;;;8.10;;
69894;SDS011;57172;52.034;5.090;2024-02-04T00:51:17;22.58;;;8.38;;
69894;SDS011;57172;52.034;5.090;2024-02-04T00:53:46;24.70;;;8.52;;
69894;SDS011;57172;52.034;5.090;2024-02-04T00:56:13;23.33;;;9.15;;
69894;SDS011;57172;52.034;5.090;2024-02-04T00:58:40;29.37;;;8.60;;
69894;SDS011;57172;52.034;5.090;2024-02-04T01:01:07;27.42;;;9.55;;
69894;SDS011;57172;52.034;5.090;2024-02-04T01:03:34;30.38;;;9.15;;
69894;SDS011;57172;52.034;5.090;2024-02-04T01:06:01;24.75;;;9.13;;
69894;SDS011;57172;52.034;5.090;2024-02-04T01:08:28;26.75;;;10.00;;
69894;SDS011;57172;52.034;5.090;2024-02-04T01:10:55;34.23;;;9.90;;
69894;SDS011;57172;52.034;5.090;2024-02-04T01:13:22;26.38;;;8.95;;
69894;SDS011;57172;52.034;5.090;2024-02-04T01:15:49;22.30;;;8.27;;
69894;SDS011;57172;52.034;5.090;2024-02-04T01:18:16;25.95;;;9.50;;
69894;SDS011;57172;52.034;5.090;2024-02-04T01:20:43;32.30;;;9.68;;
69894;SDS011;57172;52.034;5.090;2024-02-04T01:23:10;26.00;;;8.27;;
69894;SDS011;57172;52.034;5.090;2024-02-04T01:25:37;26.30;;;9.18;;
69894;SDS011;57172;52.034;5.090;2024-02-04T01:28:09;25.23;;;9.60;;
69894;SDS011;57172;52.034;5.090;2024-02-04T01:30:36;29.05;;;9.48;;
69894;SDS011;57172;52.034;5.090;2024-02-04T01:33:04;27.92;;;9.93;;
69894;SDS011;57172;52.034;5.090;2024-02-04T01:35:32;32.43;;;9.23;;
69894;SDS011;57172;52.034;5.090;2024-02-04T01:37:59;22.40;;;8.95;;
69894;SDS011;57172;52.034;5.090;2024-02-04T01:40:25;29.50;;;9.60;;
69894;SDS011;57172;52.034;5.090;2024-02-04T01:42:52;29.90;;;9.55;;
69894;SDS011;57172;52.034;5.090;2024-02-04T01:45:19;22.65;;;9.43;;
69894;SDS011;57172;52.034;5.090;2024-02-04T01:47:46;26.30;;;10.47;;
69894;SDS011;57172;52.034;5.090;2024-02-04T01:50:14;31.35;;;10.15;;
69894;SDS011;57172;52.034;5.090;2024-02-04T01:52:42;33.70;;;11.23;;
69894;SDS011;57172;52.034;5.090;2024-02-04T01:55:11;25.50;;;9.52;;
69894;SDS011;57172;52.034;5.090;2024-02-04T01:57:38;28.25;;;10.77;;
69894;SDS011;57172;52.034;5.090;2024-02-04T02:00:06;26.10;;;10.10;;
69894;SDS011;57172;52.034;5.090;2024-02-04T02:02:39;33.28;;;11.25;;
69894;SDS011;57172;52.034;5.090;2024-02-04T02:05:07;25.23;;;9.80;;
69894;SDS011;57172;52.034;5.090;2024-02-04T02:07:36;27.05;;;10.02;;
69894;SDS011;57172;52.034;5.090;2024-02-04T02:10:02;27.90;;;9.77;;
69894;SDS011;57172;52.034;5.090;2024-02-04T02:12:36;28.63;;;10.00;;
69894;SDS011;57172;52.034;5.090;2024-02-04T02:15:11;26.83;;;9.88;;
69894;SDS011;57172;52.034;5.090;2024-02-04T02:20:53;28.80;;;9.75;;
69894;SDS011;57172;52.034;5.090;2024-02-04T02:23:48;25.90;;;9.40;;
69894;SDS011;57172;52.034;5.090;2024-02-04T02:26:27;23.13;;;9.23;;
69894;SDS011;57172;52.034;5.090;2024-02-04T02:28:54;26.10;;;10.32;;
69894;SDS011;57172;52.034;5.090;2024-02-04T02:31:21;23.77;;;9.55;;
69894;SDS011;57172;52.034;5.090;2024-02-04T02:34:04;18.20;;;7.75;;
69894;SDS011;57172;52.034;5.090;2024-02-04T02:36:43;23.73;;;8.60;;
69894;SDS011;57172;52.034;5.090;2024-02-04T02:39:15;23.23;;;9.27;;
69894;SDS011;57172;52.034;5.090;2024-02-04T02:41:48;29.33;;;9.90;;
69894;SDS011;57172;52.034;5.090;2024-02-04T02:44:19;29.02;;;9.00;;
69894;SDS011;57172;52.034;5.090;2024-02-04T02:46:47;27.55;;;8.27;;
69894;SDS011;57172;52.034;5.090;2024-02-04T02:49:15;24.67;;;8.52;;
69894;SDS011;57172;52.034;5.090;2024-02-04T02:51:42;23.40;;;8.30;;
69894;SDS011;57172;52.034;5.090;2024-02-04T02:54:09;28.42;;;9.30;;
69894;SDS011;57172;52.034;5.090;2024-02-04T02:56:36;18.30;;;7.90;;
69894;SDS011;57172;52.034;5.090;2024-02-04T02:59:03;26.58;;;8.48;;
69894;SDS011;57172;52.034;5.090;2024-02-04T03:01:30;24.13;;;9.18;;
69894;SDS011;57172;52.034;5.090;2024-02-04T03:03:58;22.53;;;7.83;;
69894;SDS011;57172;52.034;5.090;2024-02-04T03:06:25;21.33;;;8.13;;
69894;SDS011;57172;52.034;5.090;2024-02-04T03:08:51;20.33;;;7.45;;
69894;SDS011;57172;52.034;5.090;2024-02-04T03:11:18;16.88;;;7.20;;
69894;SDS011;57172;52.034;5.090;2024-02-04T03:13:46;22.70;;;7.05;;
69894;SDS011;57172;52.034;5.090;2024-02-04T03:16:12;22.27;;;7.10;;
69894;SDS011;57172;52.034;5.090;2024-02-04T03:18:40;19.55;;;7.00;;
69894;SDS011;57172;52.034;5.090;2024-02-04T03:21:12;21.70;;;7.18;;
69894;SDS011;57172;52.034;5.090;2024-02-04T03:23:40;23.73;;;7.13;;
69894;SDS011;57172;52.034;5.090;2024-02-04T03:26:09;22.92;;;7.00;;
69894;SDS011;57172;52.034;5.090;2024-02-04T03:28:42;16.80;;;6.90;;
69894;SDS011;57172;52.034;5.090;2024-02-04T03:31:09;22.83;;;7.03;;
69894;SDS011;57172;52.034;5.090;2024-02-04T03:33:36;24.70;;;7.60;;
69894;SDS011;57172;52.034;5.090;2024-02-04T03:36:03;20.58;;;6.82;;
69894;SDS011;57172;52.034;5.090;2024-02-04T03:38:30;21.88;;;6.43;;
69894;SDS011;57172;52.034;5.090;2024-02-04T03:40:57;20.43;;;7.07;;
69894;SDS011;57172;52.034;5.090;2024-02-04T03:43:24;21.10;;;7.20;;
69894;SDS011;57172;52.034;5.090;2024-02-04T03:45:51;21.48;;;6.68;;
69894;SDS011;57172;52.034;5.090;2024-02-04T03:48:18;18.95;;;6.43;;
69894;SDS011;57172;52.034;5.090;2024-02-04T03:50:45;18.50;;;6.05;;
69894;SDS011;57172;52.034;5.090;2024-02-04T03:53:12;17.80;;;6.00;;
69894;SDS011;57172;52.034;5.090;2024-02-04T03:55:38;15.32;;;5.70;;
69894;SDS011;57172;52.034;5.090;2024-02-04T03:58:05;16.10;;;5.45;;
69894;SDS011;57172;52.034;5.090;2024-02-04T04:00:32;16.48;;;5.53;;
69894;SDS011;57172;52.034;5.090;2024-02-04T04:03:00;17.75;;;5.50;;
69894;SDS011;57172;52.034;5.090;2024-02-04T04:05:26;15.60;;;5.33;;
69894;SDS011;57172;52.034;5.090;2024-02-04T04:07:53;13.85;;;5.20;;
69894;SDS011;57172;52.034;5.090;2024-02-04T04:10:20;21.67;;;5.53;;
69894;SDS011;57172;52.034;5.090;2024-02-04T04:12:47;16.40;;;5.20;;
69894;SDS011;57172;52.034;5.090;2024-02-04T04:15:14;21.35;;;6.10;;
69894;SDS011;57172;52.034;5.090;2024-02-04T04:17:41;19.87;;;5.47;;
69894;SDS011;57172;52.034;5.090;2024-02-04T04:20:08;20.52;;;6.10;;
69894;SDS011;57172;52.034;5.090;2024-02-04T04:22:38;19.95;;;6.72;;
69894;SDS011;57172;52.034;5.090;2024-02-04T04:25:06;16.80;;;6.25;;
69894;SDS011;57172;52.034;5.090;2024-02-04T04:27:33;20.65;;;6.38;;
69894;SDS011;57172;52.034;5.090;2024-02-04T04:30:00;24.33;;;7.93;;
69894;SDS011;57172;52.034;5.090;2024-02-04T04:32:27;21.50;;;7.80;;
69894;SDS011;57172;52.034;5.090;2024-02-04T04:34:54;19.80;;;8.30;;
69894;SDS011;57172;52.034;5.090;2024-02-04T04:37:22;31.45;;;8.38;;
69894;SDS011;57172;52.034;5.090;2024-02-04T04:39:49;25.23;;;8.70;;
69894;SDS011;57172;52.034;5.090;2024-02-04T04:42:16;30.33;;;8.53;;
69894;SDS011;57172;52.034;5.090;2024-02-04T04:44:43;26.48;;;8.68;;
69894;SDS011;57172;52.034;5.090;2024-02-04T04:47:10;25.95;;;9.07;;
69894;SDS011;57172;52.034;5.090;2024-02-04T04:49:36;29.92;;;8.43;;
69894;SDS011;57172;52.034;5.090;2024-02-04T04:52:04;29.70;;;9.10;;
69894;SDS011;57172;52.034;5.090;2024-02-04T04:54:31;22.40;;;8.40;;
69894;SDS011;57172;52.034;5.090;2024-02-04T04:56:57;25.98;;;8.52;;
69894;SDS011;57172;52.034;5.090;2024-02-04T04:59:24;22.55;;;8.57;;
69894;SDS011;57172;52.034;5.090;2024-02-04T05:01:51;19.40;;;7.70;;
69894;SDS011;57172;52.034;5.090;2024-02-04T05:04:18;18.73;;;7.90;;
69894;SDS011;57172;52.034;5.090;2024-02-04T05:06:45;26.90;;;9.07;;
69894;SDS011;57172;52.034;5.090;2024-02-04T05:09:12;22.25;;;8.40;;
69894;SDS011;57172;52.034;5.090;2024-02-04T05:11:39;25.60;;;8.38;;
69894;SDS011;57172;52.034;5.090;2024-02-04T05:14:06;22.58;;;8.35;;
69894;SDS011;57172;52.034;5.090;2024-02-04T05:16:33;29.45;;;10.02;;
69894;SDS011;57172;52.034;5.090;2024-02-04T05:19:02;26.37;;;10.27;;
69894;SDS011;57172;52.034;5.090;2024-02-04T05:21:29;32.63;;;10.40;;
69894;SDS011;57172;52.034;5.090;2024-02-04T05:23:56;29.70;;;10.57;;
69894;SDS011;57172;52.034;5.090;2024-02-04T05:26:23;27.98;;;9.57;;
69894;SDS011;57172;52.034;5.090;2024-02-04T05:28:50;33.72;;;10.95;;
69894;SDS011;57172;52.034;5.090;2024-02-04T05:31:16;39.97;;;11.20;;
69894;SDS011;57172;52.034;5.090;2024-02-04T05:33:43;42.53;;;12.18;;
69894;SDS011;57172;52.034;5.090;2024-02-04T05:36:10;36.53;;;12.63;;
69894;SDS011;57172;52.034;5.090;2024-02-04T05:38:37;41.67;;;14.35;;
69894;SDS011;57172;52.034;5.090;2024-02-04T05:41:04;41.35;;;14.65;;
69894;SDS011;57172;52.034;5.090;2024-02-04T05:43:31;34.87;;;11.67;;
69894;SDS011;57172;52.034;5.090;2024-02-04T05:45:58;45.88;;;14.68;;
69894;SDS011;57172;52.034;5.090;2024-02-04T05:48:25;45.45;;;14.75;;
69894;SDS011;57172;52.034;5.090;2024-02-04T05:50:52;35.75;;;12.73;;
69894;SDS011;57172;52.034;5.090;2024-02-04T05:53:19;37.78;;;13.73;;
69894;SDS011;57172;52.034;5.090;2024-02-04T05:55:46;32.80;;;12.40;;
69894;SDS011;57172;52.034;5.090;2024-02-04T05:58:16;32.83;;;11.52;;
69894;SDS011;57172;52.034;5.090;2024-02-04T06:00:42;31.35;;;11.20;;
69894;SDS011;57172;52.034;5.090;2024-02-04T06:03:09;29.67;;;12.07;;
69894;SDS011;57172;52.034;5.090;2024-02-04T06:05:36;31.48;;;10.95;;
69894;SDS011;57172;52.034;5.090;2024-02-04T06:08:03;29.07;;;11.93;;
69894;SDS011;57172;52.034;5.090;2024-02-04T06:10:30;35.35;;;11.75;;
69894;SDS011;57172;52.034;5.090;2024-02-04T06:12:57;28.75;;;10.95;;
69894;SDS011;57172;52.034;5.090;2024-02-04T06:15:24;26.42;;;11.70;;
69894;SDS011;57172;52.034;5.090;2024-02-04T06:17:51;30.73;;;12.05;;
69894;SDS011;57172;52.034;5.090;2024-02-04T06:20:18;30.50;;;12.40;;
69894;SDS011;57172;52.034;5.090;2024-02-04T06:22:45;32.97;;;12.70;;
69894;SDS011;57172;52.034;5.090;2024-02-04T06:25:12;29.45;;;11.40;;
69894;SDS011;57172;52.034;5.090;2024-02-04T06:27:39;32.00;;;12.25;;
69894;SDS011;57172;52.034;5.090;2024-02-04T06:30:06;33.65;;;11.30;;
69894;SDS011;57172;52.034;5.090;2024-02-04T06:32:36;36.10;;;11.97;;
69894;SDS011;57172;52.034;5.090;2024-02-04T06:35:03;17.30;;;7.57;;
69894;SDS011;57172;52.034;5.090;2024-02-04T06:37:30;27.45;;;10.05;;
69894;SDS011;57172;52.034;5.090;2024-02-04T06:39:57;23.60;;;9.82;;
69894;SDS011;57172;52.034;5.090;2024-02-04T06:42:24;23.45;;;9.07;;
69894;SDS011;57172;52.034;5.090;2024-02-04T06:44:51;24.83;;;8.50;;
69894;SDS011;57172;52.034;5.090;2024-02-04T06:47:18;18.88;;;7.55;;
69894;SDS011;57172;52.034;5.090;2024-02-04T06:49:44;18.38;;;6.65;;
69894;SDS011;57172;52.034;5.090;2024-02-04T06:52:12;18.83;;;6.88;;
69894;SDS011;57172;52.034;5.090;2024-02-04T06:54:39;14.35;;;6.75;;
69894;SDS011;57172;52.034;5.090;2024-02-04T06:57:06;14.83;;;7.40;;
69894;SDS011;57172;52.034;5.090;2024-02-04T06:59:33;16.85;;;7.18;;
69894;SDS011;57172;52.034;5.090;2024-02-04T07:02:00;15.43;;;6.95;;
69894;SDS011;57172;52.034;5.090;2024-02-04T07:04:27;15.32;;;6.78;;
69894;SDS011;57172;52.034;5.090;2024-02-04T07:06:54;20.65;;;7.25;;
69894;SDS011;57172;52.034;5.090;2024-02-04T07:09:21;24.03;;;8.10;;
69894;SDS011;57172;52.034;5.090;2024-02-04T07:11:48;17.75;;;7.90;;
69894;SDS011;57172;52.034;5.090;2024-02-04T07:14:15;16.33;;;6.57;;
69894;SDS011;57172;52.034;5.090;2024-02-04T07:16:42;18.73;;;7.28;;
69894;SDS011;57172;52.034;5.090;2024-02-04T07:19:09;13.57;;;6.57;;
69894;SDS011;57172;52.034;5.090;2024-02-04T07:21:36;14.77;;;6.40;;
69894;SDS011;57172;52.034;5.090;2024-02-04T07:24:02;13.57;;;6.78;;
69894;SDS011;57172;52.034;5.090;2024-02-04T07:26:29;20.20;;;7.70;;
69894;SDS011;57172;52.034;5.090;2024-02-04T07:28:56;19.38;;;7.50;;
69894;SDS011;57172;52.034;5.090;2024-02-04T07:31:23;18.35;;;7.18;;
69894;SDS011;57172;52.034;5.090;2024-02-04T07:33:50;18.20;;;7.43;;
69894;SDS011;57172;52.034;5.090;2024-02-04T07:36:17;16.55;;;7.10;;
69894;SDS011;57172;52.034;5.090;2024-02-04T07:38:44;19.33;;;6.30;;
69894;SDS011;57172;52.034;5.090;2024-02-04T07:41:13;20.90;;;6.60;;
69894;SDS011;57172;52.034;5.090;2024-02-04T07:43:41;13.25;;;4.97;;
69894;SDS011;57172;52.034;5.090;2024-02-04T07:46:10;15.03;;;5.40;;
69894;SDS011;57172;52.034;5.090;2024-02-04T07:48:37;12.10;;;4.88;;
69894;SDS011;57172;52.034;5.090;2024-02-04T07:51:05;11.73;;;5.05;;
69894;SDS011;57172;52.034;5.090;2024-02-04T07:53:33;10.30;;;5.07;;
69894;SDS011;57172;52.034;5.090;2024-02-04T07:56:00;13.00;;;5.25;;
69894;SDS011;57172;52.034;5.090;2024-02-04T07:58:29;15.70;;;5.77;;
69894;SDS011;57172;52.034;5.090;2024-02-04T08:00:56;16.02;;;5.55;;
69894;SDS011;57172;52.034;5.090;2024-02-04T08:03:23;14.18;;;5.47;;
69894;SDS011;57172;52.034;5.090;2024-02-04T08:05:50;15.23;;;5.68;;
69894;SDS011;57172;52.034;5.090;2024-02-04T08:08:17;12.85;;;5.88;;
69894;SDS011;57172;52.034;5.090;2024-02-04T08:10:44;14.87;;;5.07;;
69894;SDS011;57172;52.034;5.090;2024-02-04T08:13:11;11.77;;;5.72;;
69894;SDS011;57172;52.034;5.090;2024-02-04T08:15:38;16.45;;;6.60;;
69894;SDS011;57172;52.034;5.090;2024-02-04T08:18:05;13.77;;;6.10;;
69894;SDS011;57172;52.034;5.090;2024-02-04T08:20:34;15.90;;;7.20;;
69894;SDS011;57172;52.034;5.090;2024-02-04T08:23:00;17.60;;;7.47;;
69894;SDS011;57172;52.034;5.090;2024-02-04T08:25:27;18.70;;;8.07;;
69894;SDS011;57172;52.034;5.090;2024-02-04T08:27:54;24.58;;;8.23;;
69894;SDS011;57172;52.034;5.090;2024-02-04T08:30:24;15.45;;;6.15;;
69894;SDS011;57172;52.034;5.090;2024-02-04T08:32:51;17.88;;;6.00;;
69894;SDS011;57172;52.034;5.090;2024-02-04T08:35:18;15.03;;;5.70;;
69894;SDS011;57172;52.034;5.090;2024-02-04T08:37:45;16.00;;;6.30;;
69894;SDS011;57172;52.034;5.090;2024-02-04T08:40:12;15.60;;;5.40;;
69894;SDS011;57172;52.034;5.090;2024-02-04T08:42:39;11.82;;;5.03;;
69894;SDS011;57172;52.034;5.090;2024-02-04T08:45:06;13.15;;;5.00;;
69894;SDS011;57172;52.034;5.090;2024-02-04T08:47:34;11.77;;;4.77;;
69894;SDS011;57172;52.034;5.090;2024-02-04T08:50:01;9.93;;;4.68;;
69894;SDS011;57172;52.034;5.090;2024-02-04T08:52:28;13.18;;;4.30;;
69894;SDS011;57172;52.034;5.090;2024-02-04T08:54:55;8.70;;;3.90;;
69894;SDS011;57172;52.034;5.090;2024-02-04T08:57:22;12.90;;;4.50;;
69894;SDS011;57172;52.034;5.090;2024-02-04T08:59:49;10.57;;;4.03;;
69894;SDS011;57172;52.034;5.090;2024-02-04T09:02:16;8.45;;;3.40;;
69894;SDS011;57172;52.034;5.090;2024-02-04T09:04:43;7.00;;;3.30;;
69894;SDS011;57172;52.034;5.090;2024-02-04T09:07:10;10.05;;;3.92;;
69894;SDS011;57172;52.034;5.090;2024-02-04T09:09:38;7.70;;;3.00;;
69894;SDS011;57172;52.034;5.090;2024-02-04T09:12:05;11.27;;;3.50;;
69894;SDS011;57172;52.034;5.090;2024-02-04T09:14:32;8.75;;;3.03;;
69894;SDS011;57172;52.034;5.090;2024-02-04T09:16:59;7.55;;;2.80;;
69894;SDS011;57172;52.034;5.090;2024-02-04T09:19:32;6.38;;;2.70;;
69894;SDS011;57172;52.034;5.090;2024-02-04T09:22:02;7.30;;;2.58;;
69894;SDS011;57172;52.034;5.090;2024-02-04T09:24:29;10.13;;;3.23;;
69894;SDS011;57172;52.034;5.090;2024-02-04T09:26:57;13.93;;;3.15;;
69894;SDS011;57172;52.034;5.090;2024-02-04T09:29:24;10.80;;;2.53;;
69894;SDS011;57172;52.034;5.090;2024-02-04T09:31:51;6.00;;;2.30;;
69894;SDS011;57172;52.034;5.090;2024-02-04T09:34:19;10.00;;;3.20;;
69894;SDS011;57172;52.034;5.090;2024-02-04T09:36:48;8.10;;;3.10;;
69894;SDS011;57172;52.034;5.090;2024-02-04T09:39:15;6.30;;;2.22;;
69894;SDS011;57172;52.034;5.090;2024-02-04T09:41:43;6.45;;;2.15;;
69894;SDS011;57172;52.034;5.090;2024-02-04T09:44:10;7.20;;;2.30;;
69894;SDS011;57172;52.034;5.090;2024-02-04T09:46:42;9.50;;;2.45;;
69894;SDS011;57172;52.034;5.090;2024-02-04T09:49:09;10.57;;;2.33;;
69894;SDS011;57172;52.034;5.090;2024-02-04T09:51:39;6.72;;;1.90;;
69894;SDS011;57172;52.034;5.090;2024-02-04T09:54:08;5.85;;;2.10;;
69894;SDS011;57172;52.034;5.090;2024-02-04T09:56:37;5.43;;;2.08;;
69894;SDS011;57172;52.034;5.090;2024-02-04T09:59:06;7.10;;;2.10;;
69894;SDS011;57172;52.034;5.090;2024-02-04T10:01:33;7.63;;;2.30;;
69894;SDS011;57172;52.034;5.090;2024-02-04T10:04:02;7.32;;;2.00;;
69894;SDS011;57172;52.034;5.090;2024-02-04T10:06:31;3.70;;;1.80;;
69894;SDS011;57172;52.034;5.090;2024-02-04T10:08:58;8.30;;;2.20;;
69894;SDS011;57172;52.034;5.090;2024-02-04T10:11:26;7.47;;;2.03;;
69894;SDS011;57172;52.034;5.090;2024-02-04T10:13:53;9.73;;;2.10;;
69894;SDS011;57172;52.034;5.090;2024-02-04T10:16:20;5.72;;;2.20;;
69894;SDS011;57172;52.034;5.090;2024-02-04T10:18:48;8.20;;;2.85;;
69894;SDS011;57172;52.034;5.090;2024-02-04T10:21:19;5.60;;;1.92;;
69894;SDS011;57172;52.034;5.090;2024-02-04T10:23:47;7.88;;;2.50;;
69894;SDS011;57172;52.034;5.090;2024-02-04T10:26:15;5.87;;;1.70;;
69894;SDS011;57172;52.034;5.090;2024-02-04T10:28:47;3.90;;;1.30;;
69894;SDS011;57172;52.034;5.090;2024-02-04T10:31:14;3.90;;;1.40;;
69894;SDS011;57172;52.034;5.090;2024-02-04T10:33:41;3.28;;;1.40;;
69894;SDS011;57172;52.034;5.090;2024-02-04T10:36:10;6.50;;;1.80;;
69894;SDS011;57172;52.034;5.090;2024-02-04T10:38:37;2.93;;;1.60;;
69894;SDS011;57172;52.034;5.090;2024-02-04T10:41:04;3.90;;;1.95;;
69894;SDS011;57172;52.034;5.090;2024-02-04T10:43:34;3.60;;;2.42;;
69894;SDS011;57172;52.034;5.090;2024-02-04T10:46:02;6.43;;;2.95;;
69894;SDS011;57172;52.034;5.090;2024-02-04T10:48:36;5.30;;;3.60;;
69894;SDS011;57172;52.034;5.090;2024-02-04T10:51:15;10.03;;;5.13;;
69894;SDS011;57172;52.034;5.090;2024-02-04T10:53:43;7.32;;;4.43;;
69894;SDS011;57172;52.034;5.090;2024-02-04T10:56:20;11.38;;;5.13;;
69894;SDS011;57172;52.034;5.090;2024-02-04T10:58:51;9.18;;;4.78;;
69894;SDS011;57172;52.034;5.090;2024-02-04T11:01:20;9.95;;;4.72;;
69894;SDS011;57172;52.034;5.090;2024-02-04T11:03:49;10.53;;;4.73;;
69894;SDS011;57172;52.034;5.090;2024-02-04T11:06:17;12.82;;;4.88;;
69894;SDS011;57172;52.034;5.090;2024-02-04T11:08:47;10.52;;;4.75;;
69894;SDS011;57172;52.034;5.090;2024-02-04T11:11:14;9.63;;;4.75;;
69894;SDS011;57172;52.034;5.090;2024-02-04T11:13:41;10.75;;;4.78;;
69894;SDS011;57172;52.034;5.090;2024-02-04T11:19:20;9.02;;;3.55;;
69894;SDS011;57172;52.034;5.090;2024-02-04T11:25:03;9.45;;;3.80;;
69894;SDS011;57172;52.034;5.090;2024-02-04T11:27:35;11.15;;;3.28;;
69894;SDS011;57172;52.034;5.090;2024-02-04T11:30:02;11.37;;;4.10;;
69894;SDS011;57172;52.034;5.090;2024-02-04T11:32:31;7.65;;;3.42;;
69894;SDS011;57172;52.034;5.090;2024-02-04T11:34:58;10.48;;;4.00;;
69894;SDS011;57172;52.034;5.090;2024-02-04T11:37:28;13.93;;;3.97;;
69894;SDS011;57172;52.034;5.090;2024-02-04T11:39:56;8.55;;;3.70;;
69894;SDS011;57172;52.034;5.090;2024-02-04T11:42:24;8.57;;;3.00;;
69894;SDS011;57172;52.034;5.090;2024-02-04T11:45:05;7.22;;;3.15;;
69894;SDS011;57172;52.034;5.090;2024-02-04T11:47:34;11.48;;;3.50;;
69894;SDS011;57172;52.034;5.090;2024-02-04T11:50:04;11.48;;;3.33;;
69894;SDS011;57172;52.034;5.090;2024-02-04T11:52:32;9.75;;;3.55;;
69894;SDS011;57172;52.034;5.090;2024-02-04T11:54:59;6.07;;;2.83;;
69894;SDS011;57172;52.034;5.090;2024-02-04T11:57:26;11.10;;;3.60;;
69894;SDS011;57172;52.034;5.090;2024-02-04T11:59:53;6.75;;;3.40;;
69894;SDS011;57172;52.034;5.090;2024-02-04T12:02:21;11.48;;;3.33;;
69894;SDS011;57172;52.034;5.090;2024-02-04T12:04:48;7.68;;;3.40;;
69894;SDS011;57172;52.034;5.090;2024-02-04T12:07:15;6.63;;;3.10;;
69894;SDS011;57172;52.034;5.090;2024-02-04T12:09:43;9.85;;;3.70;;
69894;SDS011;57172;52.034;5.090;2024-02-04T12:12:11;14.05;;;3.17;;
69894;SDS011;57172;52.034;5.090;2024-02-04T12:14:38;11.43;;;3.75;;
69894;SDS011;57172;52.034;5.090;2024-02-04T12:17:09;8.68;;;3.22;;
69894;SDS011;57172;52.034;5.090;2024-02-04T12:19:37;10.10;;;3.93;;
69894;SDS011;57172;52.034;5.090;2024-02-04T12:22:10;12.48;;;3.75;;
69894;SDS011;57172;52.034;5.090;2024-02-04T12:24:38;6.75;;;3.05;;
69894;SDS011;57172;52.034;5.090;2024-02-04T12:27:05;10.85;;;3.95;;
69894;SDS011;57172;52.034;5.090;2024-02-04T12:29:33;10.80;;;3.70;;
69894;SDS011;57172;52.034;5.090;2024-02-04T12:32:01;10.77;;;3.43;;
69894;SDS011;57172;52.034;5.090;2024-02-04T12:34:32;8.05;;;3.05;;
69894;SDS011;57172;52.034;5.090;2024-02-04T12:37:01;9.45;;;3.20;;
69894;SDS011;57172;52.034;5.090;2024-02-04T12:39:28;8.98;;;2.92;;
69894;SDS011;57172;52.034;5.090;2024-02-04T12:41:58;8.43;;;2.45;;
69894;SDS011;57172;52.034;5.090;2024-02-04T12:44:26;7.70;;;2.50;;
69894;SDS011;57172;52.034;5.090;2024-02-04T12:46:52;6.80;;;2.40;;
69894;SDS011;57172;52.034;5.090;2024-02-04T12:49:20;6.68;;;2.47;;
69894;SDS011;57172;52.034;5.090;2024-02-04T12:51:48;8.30;;;3.15;;
69894;SDS011;57172;52.034;5.090;2024-02-04T12:54:19;9.88;;;3.50;;
69894;SDS011;57172;52.034;5.090;2024-02-04T12:56:54;7.63;;;3.40;;
69894;SDS011;57172;52.034;5.090;2024-02-04T13:01:59;10.05;;;3.83;;
69894;SDS011;57172;52.034;5.090;2024-02-04T13:04:37;11.65;;;3.83;;
69894;SDS011;57172;52.034;5.090;2024-02-04T13:07:09;12.02;;;4.18;;
69894;SDS011;57172;52.034;5.090;2024-02-04T13:09:43;11.87;;;3.77;;
69894;SDS011;57172;52.034;5.090;2024-02-04T13:12:14;8.68;;;3.85;;
69894;SDS011;57172;52.034;5.090;2024-02-04T13:14:42;11.43;;;4.38;;
69894;SDS011;57172;52.034;5.090;2024-02-04T13:17:10;8.95;;;3.78;;
69894;SDS011;57172;52.034;5.090;2024-02-04T13:19:38;13.75;;;3.83;;
69894;SDS011;57172;52.034;5.090;2024-02-04T13:22:06;9.80;;;3.70;;
69894;SDS011;57172;52.034;5.090;2024-02-04T13:24:33;9.98;;;4.00;;
69894;SDS011;57172;52.034;5.090;2024-02-04T13:27:01;10.25;;;3.60;;
69894;SDS011;57172;52.034;5.090;2024-02-04T13:29:29;11.00;;;4.22;;
69894;SDS011;57172;52.034;5.090;2024-02-04T13:31:56;10.27;;;3.55;;
69894;SDS011;57172;52.034;5.090;2024-02-04T13:34:24;11.17;;;3.47;;
69894;SDS011;57172;52.034;5.090;2024-02-04T13:36:51;14.70;;;3.55;;
69894;SDS011;57172;52.034;5.090;2024-02-04T13:39:18;10.20;;;3.85;;
69894;SDS011;57172;52.034;5.090;2024-02-04T13:41:45;10.00;;;3.30;;
69894;SDS011;57172;52.034;5.090;2024-02-04T13:44:12;11.20;;;3.65;;
69894;SDS011;57172;52.034;5.090;2024-02-04T13:46:39;11.47;;;3.80;;
69894;SDS011;57172;52.034;5.090;2024-02-04T13:49:09;13.63;;;3.72;;
69894;SDS011;57172;52.034;5.090;2024-02-04T13:51:39;6.53;;;2.80;;
69894;SDS011;57172;52.034;5.090;2024-02-04T13:54:11;12.43;;;4.03;;
69894;SDS011;57172;52.034;5.090;2024-02-04T13:56:43;11.48;;;3.17;;
69894;SDS011;57172;52.034;5.090;2024-02-04T13:59:10;10.67;;;3.00;;
69894;SDS011;57172;52.034;5.090;2024-02-04T14:01:37;11.60;;;2.78;;
69894;SDS011;57172;52.034;5.090;2024-02-04T14:04:04;8.45;;;2.85;;
69894;SDS011;57172;52.034;5.090;2024-02-04T14:06:31;9.38;;;2.40;;
69894;SDS011;57172;52.034;5.090;2024-02-04T14:08:58;8.68;;;2.40;;
69894;SDS011;57172;52.034;5.090;2024-02-04T14:11:25;9.90;;;2.50;;
69894;SDS011;57172;52.034;5.090;2024-02-04T14:13:52;10.57;;;2.20;;
69894;SDS011;57172;52.034;5.090;2024-02-04T14:16:19;9.90;;;2.60;;
69894;SDS011;57172;52.034;5.090;2024-02-04T14:18:46;8.00;;;2.70;;
69894;SDS011;57172;52.034;5.090;2024-02-04T14:21:13;9.75;;;2.35;;
69894;SDS011;57172;52.034;5.090;2024-02-04T14:23:41;8.70;;;2.00;;
69894;SDS011;57172;52.034;5.090;2024-02-04T14:26:16;9.63;;;2.72;;
69894;SDS011;57172;52.034;5.090;2024-02-04T14:28:44;9.65;;;2.38;;
69894;SDS011;57172;52.034;5.090;2024-02-04T14:31:11;8.63;;;2.25;;
69894;SDS011;57172;52.034;5.090;2024-02-04T14:33:38;8.65;;;2.10;;
69894;SDS011;57172;52.034;5.090;2024-02-04T14:36:06;11.10;;;2.40;;
69894;SDS011;57172;52.034;5.090;2024-02-04T14:38:34;10.10;;;2.30;;
69894;SDS011;57172;52.034;5.090;2024-02-04T14:41:04;9.80;;;2.22;;
69894;SDS011;57172;52.034;5.090;2024-02-04T14:43:31;8.18;;;2.40;;
69894;SDS011;57172;52.034;5.090;2024-02-04T14:45:58;8.18;;;2.60;;
69894;SDS011;57172;52.034;5.090;2024-02-04T14:48:26;8.67;;;2.70;;
69894;SDS011;57172;52.034;5.090;2024-02-04T14:50:53;10.20;;;3.00;;
69894;SDS011;57172;52.034;5.090;2024-02-04T14:53:20;10.73;;;3.38;;